Time;durP1;ratioP1;P1;durP2;ratioP2;P2;SDS_P1;SDS_P2;PMS_P1;PMS_P2;Temp;Humidity;BMP_temperature;BMP_pressure;BME280_temperature;BME280_humidity;BME280_pressure;Samples;Min_cycle;Max_cycle;Signal;HPM_P1;HPM_P2
2022/03/17 00:02:10;;;;;;;11.50;8.68;;;25.80;99.90;;;;;;5004002;28;20049;-69
2022/03/17 00:04:37;;;;;;;13.32;8.93;;;25.80;99.90;;;;;;4994166;28;20022;-69
2022/03/17 00:07:05;;;;;;;17.80;11.80;;;26.00;99.90;;;;;;5001667;28;20133;-65
2022/03/17 00:09:32;;;;;;;9.80;6.22;;;26.20;99.90;;;;;;5000465;28;20452;-68
2022/03/17 00:11:59;;;;;;;10.55;4.68;;;26.40;99.90;;;;;;5006032;28;20037;-68
2022/03/17 00:14:29;;;;;;;8.52;4.53;;;26.50;99.90;;;;;;5001963;28;20137;-62
2022/03/17 00:16:56;;;;;;;8.82;4.38;;;26.60;99.90;;;;;;5001801;28;20026;-66
2022/03/17 00:19:23;;;;;;;10.52;6.20;;;26.90;99.90;;;;;;5002156;28;20042;-63
2022/03/17 00:21:50;;;;;;;11.77;7.57;;;27.30;99.90;;;;;;5003223;28;20125;-65
2022/03/17 00:24:17;;;;;;;12.05;6.95;;;27.50;99.90;;;;;;5004007;28;20030;-67
2022/03/17 00:26:44;;;;;;;10.65;6.90;;;27.60;99.90;;;;;;4987840;28;20116;-69
2022/03/17 00:29:11;;;;;;;11.05;6.97;;;27.70;99.90;;;;;;5005840;28;20018;-66
2022/03/17 00:31:39;;;;;;;7.82;4.47;;;28.10;99.90;;;;;;5003572;28;20029;-63
2022/03/17 00:34:09;;;;;;;8.38;6.32;;;28.40;99.90;;;;;;5004182;28;20428;-65
2022/03/17 00:36:37;;;;;;;10.02;6.05;;;28.60;99.90;;;;;;5002822;28;20049;-64
2022/03/17 00:39:07;;;;;;;6.60;4.28;;;28.70;99.90;;;;;;5003475;28;20034;-64
2022/03/17 00:41:35;;;;;;;5.10;3.20;;;29.00;99.90;;;;;;5005177;28;20034;-63
2022/03/17 00:44:02;;;;;;;6.15;3.28;;;29.00;99.90;;;;;;5003922;28;20508;-65
2022/03/17 00:46:29;;;;;;;8.65;3.42;;;28.80;99.90;;;;;;4983482;28;20032;-67
2022/03/17 00:48:56;;;;;;;8.93;3.40;;;28.90;99.90;;;;;;5004871;28;20400;-65
2022/03/17 00:51:23;;;;;;;7.72;3.47;;;28.80;99.90;;;;;;4987705;28;20498;-67
2022/03/17 00:53:51;;;;;;;4.30;3.20;;;28.70;99.90;;;;;;5003689;28;20493;-67
2022/03/17 00:56:18;;;;;;;9.60;6.10;;;28.60;99.90;;;;;;4998570;28;20058;-65
2022/03/17 00:58:46;;;;;;;12.80;5.13;;;28.50;99.90;;;;;;5003770;28;20029;-68
2022/03/17 01:01:16;;;;;;;6.07;4.57;;;28.60;99.90;;;;;;5002461;28;20073;-69
2022/03/17 01:03:45;;;;;;;9.32;4.47;;;28.80;99.90;;;;;;5004556;28;20022;-69
2022/03/17 01:06:12;;;;;;;10.73;5.03;;;29.20;99.90;;;;;;5001900;28;20022;-64
2022/03/17 01:08:40;;;;;;;6.78;3.55;;;29.40;99.90;;;;;;5003902;28;20026;-69
2022/03/17 01:11:07;;;;;;;5.88;3.67;;;29.30;99.90;;;;;;5003453;28;20161;-63
2022/03/17 01:13:35;;;;;;;6.68;3.28;;;29.10;99.90;;;;;;5003932;28;20022;-66
2022/03/17 01:16:02;;;;;;;6.03;3.22;;;29.00;99.90;;;;;;5003731;28;20025;-65
2022/03/17 01:18:29;;;;;;;7.13;3.42;;;29.10;99.90;;;;;;4650985;28;10000522;-64
2022/03/17 01:20:57;;;;;;;4.82;2.70;;;29.00;99.90;;;;;;4991384;28;20145;-67
2022/03/17 01:23:24;;;;;;;8.45;3.67;;;29.20;99.90;;;;;;4995916;28;20140;-63
2022/03/17 01:25:51;;;;;;;5.93;3.25;;;29.30;99.90;;;;;;4996847;28;20603;-67
2022/03/17 01:28:18;;;;;;;7.78;3.50;;;29.80;99.90;;;;;;4990740;28;20033;-63
2022/03/17 01:30:45;;;;;;;8.55;3.22;;;29.80;99.90;;;;;;4991069;28;20038;-68
2022/03/17 01:33:12;;;;;;;5.57;2.85;;;30.10;99.90;;;;;;4994532;28;20029;-68
2022/03/17 01:35:39;;;;;;;5.55;3.78;;;30.10;99.90;;;;;;5003471;28;20018;-68
2022/03/17 01:38:06;;;;;;;6.05;3.45;;;29.90;99.90;;;;;;4992005;28;20050;-63
2022/03/17 01:40:33;;;;;;;4.20;3.10;;;29.50;99.90;;;;;;4990694;28;20034;-64
2022/03/17 01:43:00;;;;;;;4.45;2.92;;;29.70;99.90;;;;;;5000093;28;20029;-65
2022/03/17 01:45:27;;;;;;;5.10;2.88;;;30.10;99.90;;;;;;5003051;28;20113;-68
2022/03/17 01:47:55;;;;;;;7.40;4.40;;;30.40;99.90;;;;;;4994615;28;20030;-68
2022/03/17 01:50:23;;;;;;;5.25;3.17;;;30.60;99.90;;;;;;5001623;28;20456;-68
2022/03/17 01:52:50;;;;;;;8.15;3.90;;;30.80;99.90;;;;;;4996210;28;20038;-66
2022/03/17 01:55:18;;;;;;;6.05;3.00;;;30.60;99.90;;;;;;5001939;28;20037;-68
2022/03/17 01:57:46;;;;;;;6.88;3.72;;;30.30;99.90;;;;;;4998793;28;20026;-63
2022/03/17 02:00:17;;;;;;;9.68;5.45;;;30.40;99.90;;;;;;4994981;28;20120;-68
2022/03/17 02:02:48;;;;;;;11.00;8.00;;;30.50;99.90;;;;;;4975232;28;20555;-67
2022/03/17 02:05:15;;;;;;;6.70;3.58;;;30.80;99.90;;;;;;4986764;28;20088;-64
2022/03/17 02:07:47;;;;;;;5.55;3.00;;;31.00;99.90;;;;;;4990934;28;20025;-67
2022/03/17 02:10:14;;;;;;;6.20;3.08;;;31.00;99.90;;;;;;4991940;28;20066;-66
2022/03/17 02:15:32;;;;;;;4.28;2.58;;;31.00;99.90;;;;;;4995372;28;20037;-68
2022/03/17 02:17:59;;;;;;;6.40;3.63;;;31.30;99.90;;;;;;4991738;28;20025;-67
2022/03/17 02:20:27;;;;;;;7.18;4.45;;;31.60;99.90;;;;;;4993109;28;20030;-68
2022/03/17 02:25:33;;;;;;;5.28;3.25;;;31.70;99.80;;;;;;4986862;28;20025;-65
2022/03/17 02:25:55;;;;;;;4.75;2.90;;;31.50;99.70;;;;;;4992715;28;20397;-68
2022/03/17 02:28:24;;;;;;;5.32;2.70;;;31.60;99.90;;;;;;4990834;28;20026;-67
2022/03/17 02:30:51;;;;;;;5.22;2.47;;;31.70;99.20;;;;;;4970595;28;20032;-68
2022/03/17 02:33:18;;;;;;;5.07;2.58;;;31.80;99.30;;;;;;4992951;28;20045;-64
2022/03/17 02:35:49;;;;;;;5.88;2.72;;;31.90;99.60;;;;;;4998698;28;20162;-65
2022/03/17 02:38:17;;;;;;;3.42;2.47;;;31.90;99.30;;;;;;4990690;28;20069;-68
2022/03/17 02:40:46;;;;;;;4.03;2.47;;;31.60;99.20;;;;;;4987752;28;20033;-67
2022/03/17 02:43:14;;;;;;;3.97;3.00;;;31.20;99.60;;;;;;4991599;28;20019;-67
2022/03/17 02:45:43;;;;;;;4.15;2.85;;;31.30;99.90;;;;;;4991852;28;20535;-65
2022/03/17 02:48:11;;;;;;;3.47;2.63;;;31.10;99.60;;;;;;4973522;28;20030;-65
2022/03/17 02:50:38;;;;;;;6.00;2.80;;;31.10;99.90;;;;;;4989746;28;20026;-63
2022/03/17 02:53:09;;;;;;;4.07;2.47;;;31.10;99.10;;;;;;4992598;28;20080;-64
2022/03/17 02:55:39;;;;;;;6.60;5.05;;;31.20;99.50;;;;;;5001384;28;20135;-69
2022/03/17 02:58:07;;;;;;;5.97;3.55;;;31.50;98.90;;;;;;4990057;28;20038;-64
2022/03/17 03:00:36;;;;;;;4.75;3.33;;;31.70;98.40;;;;;;4988594;28;20033;-68
2022/03/17 03:03:06;;;;;;;5.60;3.72;;;31.90;98.50;;;;;;4992412;28;20477;-67
2022/03/17 03:05:33;;;;;;;4.55;2.28;;;31.90;98.70;;;;;;4995766;28;20028;-68
2022/03/17 03:08:01;;;;;;;4.45;2.72;;;32.10;98.20;;;;;;4997856;28;20036;-68
2022/03/17 03:10:29;;;;;;;6.20;2.78;;;31.90;98.10;;;;;;4991474;28;20030;-67
2022/03/17 03:12:56;;;;;;;3.47;2.30;;;31.70;97.60;;;;;;5003791;28;20034;-67
2022/03/17 03:15:23;;;;;;;4.80;2.47;;;31.40;98.70;;;;;;4994425;28;20611;-65
2022/03/17 03:17:50;;;;;;;3.70;2.28;;;31.50;98.60;;;;;;4994818;28;20057;-69
2022/03/17 03:20:17;;;;;;;3.78;2.65;;;31.50;97.80;;;;;;4994175;28;20472;-64
2022/03/17 03:22:44;;;;;;;6.88;2.50;;;31.30;97.60;;;;;;4998351;28;20026;-65
2022/03/17 03:25:11;;;;;;;4.50;2.42;;;31.50;97.80;;;;;;5001364;28;20042;-64
2022/03/17 03:27:40;;;;;;;3.65;2.40;;;31.60;98.00;;;;;;4991555;28;20018;-63
2022/03/17 03:30:11;;;;;;;4.95;2.70;;;31.90;97.80;;;;;;4994385;28;20032;-66
2022/03/17 03:32:39;;;;;;;;;;;32.00;98.00;;;;;;4995311;28;20069;-61
2022/03/17 03:37:52;;;;;;;5.57;4.32;;;32.00;96.90;;;;;;4997136;28;20060;-62
2022/03/17 03:40:19;;;;;;;6.65;4.05;;;31.80;97.70;;;;;;4987140;28;20030;-64
2022/03/17 03:42:46;;;;;;;27.38;24.73;;;31.90;97.50;;;;;;5000413;28;20561;-62
2022/03/17 03:45:13;;;;;;;8.27;5.30;;;32.00;97.30;;;;;;5002470;28;20132;-64
2022/03/17 03:47:40;;;;;;;8.30;7.47;;;32.20;97.20;;;;;;4998179;28;20057;-70
2022/03/17 03:50:08;;;;;;;5.72;3.33;;;32.50;96.80;;;;;;4986425;28;20018;-71
2022/03/17 03:52:35;;;;;;;6.18;3.55;;;32.50;97.30;;;;;;4996298;28;20289;-72
2022/03/17 03:55:02;;;;;;;4.15;2.25;;;32.60;96.80;;;;;;4994484;28;20030;-70
2022/03/17 03:57:29;;;;;;;4.72;2.70;;;32.40;96.30;;;;;;5004296;28;20038;-72
2022/03/17 03:59:56;;;;;;;3.55;2.40;;;32.50;97.00;;;;;;4993293;28;20096;-72
2022/03/17 04:02:23;;;;;;;4.07;2.28;;;32.60;96.00;;;;;;4998769;28;20038;-69
2022/03/17 04:04:50;;;;;;;4.45;1.98;;;32.50;95.70;;;;;;4999294;28;20041;-71
2022/03/17 04:07:18;;;;;;;3.15;1.80;;;32.40;95.40;;;;;;5001196;28;20025;-68
2022/03/17 04:09:45;;;;;;;6.68;2.13;;;32.20;95.60;;;;;;5002466;28;20022;-68
2022/03/17 04:12:14;;;;;;;3.67;2.17;;;32.20;96.00;;;;;;5000010;28;20081;-68
2022/03/17 04:14:41;;;;;;;3.63;1.70;;;32.20;95.80;;;;;;5004225;28;20040;-69
2022/03/17 04:17:08;;;;;;;4.20;1.80;;;32.20;95.90;;;;;;5002552;28;20029;-65
2022/03/17 04:19:35;;;;;;;4.10;1.67;;;32.20;95.60;;;;;;5000802;28;20065;-65
2022/03/17 04:22:03;;;;;;;4.57;1.73;;;32.20;95.60;;;;;;4999276;28;20036;-68
2022/03/17 04:24:30;;;;;;;3.38;1.60;;;32.10;96.00;;;;;;4998574;28;20018;-65
2022/03/17 04:26:57;;;;;;;3.25;1.55;;;32.10;95.50;;;;;;5000542;28;20036;-70
2022/03/17 04:29:23;;;;;;;2.97;1.67;;;31.90;95.50;;;;;;4999433;28;20484;-73
2022/03/17 04:31:50;;;;;;;3.40;1.40;;;32.00;95.50;;;;;;5006801;28;20105;-73
2022/03/17 04:34:18;;;;;;;4.50;1.70;;;31.80;95.50;;;;;;4997069;28;20023;-64
2022/03/17 04:36:45;;;;;;;3.60;1.50;;;32.00;95.40;;;;;;4999816;28;20037;-66
2022/03/17 04:39:12;;;;;;;2.33;1.40;;;32.00;94.80;;;;;;4996174;28;20033;-67
2022/03/17 04:41:40;;;;;;;3.70;1.63;;;31.90;95.10;;;;;;4998462;28;20105;-72
2022/03/17 04:44:08;;;;;;;3.15;1.63;;;32.00;95.00;;;;;;4998623;28;20428;-71
2022/03/17 04:46:36;;;;;;;3.25;1.60;;;32.00;94.60;;;;;;5001180;28;20062;-66
2022/03/17 04:49:03;;;;;;;2.53;1.52;;;31.80;93.90;;;;;;5002955;28;20042;-74
2022/03/17 04:51:31;;;;;;;2.75;1.50;;;31.60;95.00;;;;;;5002889;28;20088;-71
2022/03/17 04:53:58;;;;;;;3.53;1.55;;;31.70;95.20;;;;;;5002884;28;20029;-68
2022/03/17 04:56:25;;;;;;;4.80;1.77;;;31.80;95.20;;;;;;5003614;28;20030;-74
2022/03/17 04:58:52;;;;;;;3.03;1.70;;;31.90;95.60;;;;;;5001754;28;20034;-73
2022/03/17 05:01:19;;;;;;;5.80;1.50;;;32.10;96.10;;;;;;5003029;28;20112;-69
2022/03/17 05:03:46;;;;;;;3.80;2.13;;;31.90;95.80;;;;;;5003392;28;20492;-67
2022/03/17 05:06:15;;;;;;;7.00;4.13;;;31.80;96.10;;;;;;5002299;28;20129;-74
2022/03/17 05:08:42;;;;;;;5.15;2.20;;;31.90;95.80;;;;;;5003956;28;20022;-65
2022/03/17 05:11:10;;;;;;;6.75;5.15;;;31.50;95.90;;;;;;5003302;28;20495;-72
2022/03/17 05:13:39;;;;;;;2.97;1.63;;;31.70;95.70;;;;;;4984157;28;20029;-71
2022/03/17 05:16:07;;;;;;;4.68;2.47;;;31.70;94.90;;;;;;5003219;28;20030;-67
2022/03/17 05:18:35;;;;;;;3.65;1.70;;;31.80;95.50;;;;;;5002222;28;20417;-64
2022/03/17 05:21:02;;;;;;;2.88;1.50;;;31.70;94.90;;;;;;5002183;28;20049;-70
2022/03/17 05:23:31;;;;;;;4.30;1.90;;;31.70;95.70;;;;;;5003807;28;20040;-66
2022/03/17 05:25:58;;;;;;;3.70;1.67;;;31.50;95.80;;;;;;5005890;28;20396;-72
2022/03/17 05:28:25;;;;;;;3.20;1.70;;;31.40;95.80;;;;;;5006287;28;20029;-68
2022/03/17 05:30:53;;;;;;;5.97;1.67;;;31.30;95.70;;;;;;5003290;28;20409;-69
2022/03/17 05:33:21;;;;;;;4.18;1.45;;;31.20;94.80;;;;;;5001763;28;20444;-70
2022/03/17 05:35:48;;;;;;;1.80;1.38;;;31.20;94.50;;;;;;5002239;28;20683;-67
2022/03/17 05:38:15;;;;;;;2.15;1.38;;;30.90;95.70;;;;;;5003514;28;20061;-70
2022/03/17 05:40:42;;;;;;;2.70;1.63;;;30.80;95.40;;;;;;5003929;28;20022;-65
2022/03/17 05:43:10;;;;;;;3.78;1.48;;;30.70;95.10;;;;;;5001476;28;20457;-65
2022/03/17 05:45:41;;;;;;;3.40;1.60;;;30.70;96.10;;;;;;5003604;28;20041;-65
2022/03/17 05:48:08;;;;;;;5.82;1.95;;;30.40;96.00;;;;;;5003267;28;20061;-65
2022/03/17 05:50:41;;;;;;;2.70;1.58;;;30.50;95.80;;;;;;5001094;28;20441;-68
2022/03/17 05:53:09;;;;;;;2.35;1.25;;;30.50;96.20;;;;;;5000807;28;20044;-66
2022/03/17 05:55:37;;;;;;;2.50;1.40;;;30.40;95.90;;;;;;5001977;28;20034;-68
2022/03/17 05:58:05;;;;;;;3.45;1.48;;;30.40;95.60;;;;;;5001869;28;20033;-69
2022/03/17 06:00:36;;;;;;;3.08;1.50;;;30.50;95.60;;;;;;5002535;28;20026;-69
2022/03/17 06:03:04;;;;;;;8.95;8.02;;;30.60;95.30;;;;;;5000034;28;20392;-70
2022/03/17 06:05:31;;;;;;;9.45;5.88;;;30.70;95.30;;;;;;5001130;28;20028;-69
2022/03/17 06:08:02;;;;;;;4.88;3.67;;;30.80;95.70;;;;;;5001149;28;20026;-68
2022/03/17 06:10:33;;;;;;;3.42;1.52;;;30.90;96.20;;;;;;5002334;28;20564;-68
2022/03/17 06:13:02;;;;;;;4.70;2.13;;;31.00;95.10;;;;;;5002456;28;20036;-68
2022/03/17 06:15:30;;;;;;;3.88;2.58;;;31.30;94.60;;;;;;4998460;28;20041;-68
2022/03/17 06:17:59;;;;;;;6.15;4.10;;;31.20;94.80;;;;;;4986123;28;20077;-65
2022/03/17 06:20:29;;;;;;;4.45;3.15;;;31.30;95.20;;;;;;4989855;28;20249;-70
2022/03/17 06:22:58;;;;;;;4.05;2.00;;;31.00;95.40;;;;;;4999098;28;20041;-70
2022/03/17 06:25:27;;;;;;;6.35;4.50;;;31.00;95.60;;;;;;4999391;28;20428;-69
2022/03/17 06:27:54;;;;;;;4.32;2.42;;;31.00;95.70;;;;;;5000812;28;20164;-65
2022/03/17 06:30:31;;;;;;;3.72;1.83;;;30.90;95.80;;;;;;5000260;28;20134;-64
2022/03/17 06:32:59;;;;;;;3.25;1.63;;;30.70;95.80;;;;;;4998288;28;20029;-67
2022/03/17 06:35:27;;;;;;;3.08;2.13;;;30.70;96.30;;;;;;4999716;28;20034;-67
2022/03/17 06:38:01;;;;;;;3.22;1.40;;;30.90;96.40;;;;;;4998938;28;20459;-67
2022/03/17 06:40:30;;;;;;;3.50;1.70;;;31.00;95.20;;;;;;4999657;28;20033;-67
2022/03/17 06:42:57;;;;;;;3.10;1.65;;;30.80;95.80;;;;;;4999847;28;20481;-69
2022/03/17 06:45:25;;;;;;;3.00;1.40;;;30.50;96.50;;;;;;4998381;28;20025;-69
2022/03/17 06:47:53;;;;;;;4.72;1.70;;;30.30;95.90;;;;;;4998645;28;20025;-68
2022/03/17 06:50:21;;;;;;;2.90;1.45;;;30.10;96.40;;;;;;4999722;28;20550;-70
2022/03/17 06:52:49;;;;;;;3.80;1.50;;;29.90;96.30;;;;;;4996452;28;20569;-69
2022/03/17 06:55:17;;;;;;;2.63;1.33;;;29.80;97.30;;;;;;4980632;28;20061;-70
2022/03/17 06:57:44;;;;;;;2.72;1.30;;;29.70;97.10;;;;;;5000245;28;20033;-70
2022/03/17 07:00:13;;;;;;;4.28;2.03;;;29.50;96.70;;;;;;5000584;28;20025;-70
2022/03/17 07:02:40;;;;;;;4.00;2.38;;;29.40;97.20;;;;;;5000824;28;20129;-69
2022/03/17 07:05:08;;;;;;;2.63;1.80;;;29.20;97.80;;;;;;4998956;28;20456;-68
2022/03/17 07:07:35;;;;;;;3.35;2.10;;;29.00;98.80;;;;;;4997251;28;20088;-67
2022/03/17 07:10:03;;;;;;;5.22;2.30;;;28.90;98.90;;;;;;5001735;28;20022;-69
2022/03/17 07:12:30;;;;;;;8.18;2.90;;;28.70;99.00;;;;;;4997504;28;20025;-71
2022/03/17 07:14:57;;;;;;;8.95;5.75;;;28.60;98.70;;;;;;5000695;28;20025;-69
2022/03/17 07:17:24;;;;;;;4.50;2.45;;;28.40;98.80;;;;;;4981913;28;20510;-71
2022/03/17 07:22:25;;;;;;;4.05;1.60;;;28.00;99.00;;;;;;5000748;28;20095;-65
2022/03/17 07:24:53;;;;;;;3.83;1.45;;;28.00;99.90;;;;;;5000960;28;20026;-70
2022/03/17 07:27:24;;;;;;;3.47;1.30;;;28.00;99.00;;;;;;4999822;28;20079;-68
2022/03/17 07:29:51;;;;;;;2.92;1.67;;;27.80;99.90;;;;;;5003788;28;20021;-72
2022/03/17 07:32:19;;;;;;;5.72;1.95;;;27.60;99.90;;;;;;5005040;28;20080;-69
2022/03/17 07:34:47;;;;;;;5.65;2.50;;;27.50;99.90;;;;;;5003199;28;20096;-70
2022/03/17 07:37:14;;;;;;;5.05;2.03;;;27.30;99.90;;;;;;5002244;28;20046;-71
2022/03/17 07:39:42;;;;;;;2.92;1.80;;;27.20;99.90;;;;;;5003226;28;20041;-71
2022/03/17 07:42:09;;;;;;;4.43;1.35;;;27.10;99.90;;;;;;5005536;28;20228;-70
2022/03/17 07:44:37;;;;;;;2.67;1.20;;;26.90;99.90;;;;;;5005708;28;20032;-72
2022/03/17 07:47:10;;;;;;;4.13;1.60;;;26.80;99.90;;;;;;5008175;28;20659;-68
2022/03/17 07:49:38;;;;;;;5.32;2.25;;;26.70;99.90;;;;;;5006044;28;20036;-70
2022/03/17 07:52:06;;;;;;;4.32;2.10;;;26.70;99.90;;;;;;5005873;28;20044;-68
2022/03/17 07:54:34;;;;;;;4.45;2.40;;;26.50;99.90;;;;;;4988545;28;20030;-71
2022/03/17 07:57:05;;;;;;;2.90;1.88;;;26.40;99.90;;;;;;5009144;28;20030;-72
2022/03/17 07:59:34;;;;;;;4.85;2.00;;;26.40;99.90;;;;;;5007876;28;20430;-72
2022/03/17 08:02:03;;;;;;;5.50;2.88;;;26.30;99.90;;;;;;5007506;28;20041;-68
2022/03/17 08:04:30;;;;;;;7.78;3.05;;;26.30;99.90;;;;;;5007160;28;20511;-69
2022/03/17 08:07:00;;;;;;;7.15;2.97;;;26.20;99.90;;;;;;5008200;28;20036;-68
2022/03/17 08:09:28;;;;;;;5.00;3.10;;;26.10;99.90;;;;;;5009129;28;20022;-69
2022/03/17 08:11:55;;;;;;;6.45;3.13;;;26.00;99.90;;;;;;5008985;28;20380;-66
2022/03/17 08:14:22;;;;;;;6.97;3.10;;;26.00;99.90;;;;;;5006588;28;20373;-67
2022/03/17 08:16:50;;;;;;;8.25;3.42;;;25.90;99.90;;;;;;4643626;28;9999726;-70
2022/03/17 08:19:17;;;;;;;6.60;3.10;;;25.80;99.90;;;;;;5004110;28;20062;-70
2022/03/17 08:21:44;;;;;;;4.65;2.42;;;25.60;99.90;;;;;;4998218;28;20428;-68
2022/03/17 08:24:11;;;;;;;5.93;2.70;;;25.60;99.90;;;;;;5000886;28;20030;-70
2022/03/17 08:26:37;;;;;;;4.70;2.15;;;25.50;99.90;;;;;;5001635;28;20021;-65
2022/03/17 08:29:06;;;;;;;8.88;2.97;;;25.40;99.90;;;;;;5000810;28;20511;-67
2022/03/17 08:31:34;;;;;;;5.82;2.78;;;25.30;99.90;;;;;;5002630;28;20025;-71
2022/03/17 08:34:01;;;;;;;5.32;2.75;;;25.30;99.90;;;;;;5001416;28;20030;-68
2022/03/17 08:36:28;;;;;;;5.35;2.95;;;25.20;99.90;;;;;;5000302;28;20180;-68
2022/03/17 08:38:55;;;;;;;5.25;2.60;;;25.20;99.90;;;;;;4999960;28;20075;-65
2022/03/17 08:41:23;;;;;;;5.85;2.38;;;25.20;99.90;;;;;;5002117;28;20431;-68
2022/03/17 08:43:53;;;;;;;5.35;2.78;;;25.10;99.90;;;;;;4998965;28;20636;-69
2022/03/17 08:49:18;;;;;;;4.05;2.33;;;25.10;99.90;;;;;;4998108;28;20032;-67
2022/03/17 08:51:47;;;;;;;6.60;2.45;;;25.00;99.90;;;;;;4994458;28;20293;-70
2022/03/17 08:54:16;;;;;;;5.45;2.40;;;24.80;99.90;;;;;;5000546;28;20033;-69
2022/03/17 08:56:43;;;;;;;6.68;2.35;;;24.80;99.90;;;;;;4997748;28;20041;-69
2022/03/17 08:59:10;;;;;;;6.22;2.55;;;24.70;99.90;;;;;;5001390;28;20084;-68
2022/03/17 09:01:37;;;;;;;6.63;2.40;;;24.70;99.90;;;;;;4998245;28;20029;-67
2022/03/17 09:04:06;;;;;;;5.93;2.40;;;24.70;99.90;;;;;;4998828;28;20018;-69
2022/03/17 09:06:36;;;;;;;7.47;2.47;;;24.60;99.90;;;;;;4998534;28;20038;-68
2022/03/17 09:09:04;;;;;;;8.70;2.47;;;24.60;99.90;;;;;;4999404;28;20101;-68
2022/03/17 09:11:32;;;;;;;4.55;2.78;;;24.60;99.90;;;;;;4999436;28;20025;-68
2022/03/17 09:13:59;;;;;;;5.32;2.22;;;24.60;99.90;;;;;;4998578;28;20100;-69
2022/03/17 09:16:28;;;;;;;7.03;1.92;;;24.50;99.90;;;;;;4996899;28;20030;-69
2022/03/17 09:18:56;;;;;;;4.75;2.15;;;24.50;99.90;;;;;;4997999;28;20091;-69
2022/03/17 09:21:25;;;;;;;6.10;2.30;;;24.40;99.90;;;;;;4994735;28;20384;-67
2022/03/17 09:23:52;;;;;;;4.88;2.03;;;24.40;99.90;;;;;;5000483;28;20026;-73
2022/03/17 09:26:19;;;;;;;5.63;1.92;;;24.40;99.90;;;;;;5002595;28;20038;-68
2022/03/17 09:28:46;;;;;;;7.60;2.95;;;24.40;99.90;;;;;;4999492;28;20037;-67
2022/03/17 09:31:13;;;;;;;4.00;2.80;;;24.30;99.90;;;;;;5000123;28;20242;-70
2022/03/17 09:33:41;;;;;;;7.97;5.28;;;24.20;99.90;;;;;;4998667;28;20026;-70
2022/03/17 09:36:09;;;;;;;6.40;3.70;;;24.20;99.90;;;;;;4998948;28;20057;-66
2022/03/17 09:38:37;;;;;;;5.50;3.60;;;24.20;99.90;;;;;;4998971;28;20022;-66
2022/03/17 09:41:23;;;;;;;9.45;3.03;;;24.20;99.90;;;;;;4980657;28;20029;-72
2022/03/17 09:43:52;;;;;;;6.22;3.35;;;24.10;99.90;;;;;;4997897;28;20119;-68
2022/03/17 09:46:23;;;;;;;6.18;2.50;;;24.20;99.90;;;;;;5000226;28;20477;-69
2022/03/17 09:48:52;;;;;;;6.22;2.55;;;24.10;99.90;;;;;;4998509;28;20765;-71
2022/03/17 09:51:26;;;;;;;4.15;1.90;;;24.10;99.90;;;;;;4997091;28;20267;-68
2022/03/17 09:53:59;;;;;;;6.53;1.75;;;24.00;99.90;;;;;;5000573;28;20058;-65
2022/03/17 09:56:28;;;;;;;6.63;2.35;;;24.00;99.90;;;;;;4997630;28;20072;-70
2022/03/17 09:58:56;;;;;;;9.88;4.30;;;24.10;99.90;;;;;;4996908;28;20140;-66
2022/03/17 10:01:33;;;;;;;4.72;3.10;;;24.10;99.90;;;;;;4998150;28;20042;-66
2022/03/17 10:04:03;;;;;;;4.97;1.92;;;24.00;99.90;;;;;;4997692;28;20052;-67
2022/03/17 10:06:30;;;;;;;5.40;1.85;;;24.00;99.90;;;;;;4995289;28;20022;-66
2022/03/17 10:08:58;;;;;;;1.80;1.20;;;23.90;99.90;;;;;;4997182;28;20026;-70
2022/03/17 10:11:27;;;;;;;5.25;1.60;;;23.80;99.90;;;;;;4998539;28;20425;-68
2022/03/17 10:13:56;;;;;;;4.88;1.70;;;23.80;99.90;;;;;;4996078;28;20021;-67
2022/03/17 10:16:24;;;;;;;4.88;1.90;;;23.80;99.90;;;;;;4996761;28;20033;-68
2022/03/17 10:19:02;;;;;;;5.85;1.58;;;23.70;99.90;;;;;;4999116;28;20423;-70
2022/03/17 10:21:30;;;;;;;6.07;1.83;;;23.70;99.90;;;;;;4989734;28;20042;-70
2022/03/17 10:24:08;;;;;;;3.55;1.38;;;23.60;99.90;;;;;;4996040;28;20076;-69
2022/03/17 10:26:47;;;;;;;5.00;1.55;;;23.60;99.90;;;;;;4996476;28;20531;-67
2022/03/17 10:29:22;;;;;;;4.53;1.85;;;23.60;99.90;;;;;;4974920;28;20492;-67
2022/03/17 10:32:05;;;;;;;7.28;2.00;;;23.50;99.90;;;;;;5000098;28;20760;-67
2022/03/17 10:34:56;;;;;;;4.63;1.38;;;23.50;99.90;;;;;;4303641;28;10000825;-67
2022/03/17 10:37:30;;;;;;;5.03;1.58;;;23.50;99.90;;;;;;5010777;23;20711;-69
2022/03/17 10:39:59;;;;;;;6.35;1.83;;;23.40;99.90;;;;;;5007892;28;20038;-69
2022/03/17 10:42:30;;;;;;;6.05;1.90;;;23.50;99.90;;;;;;4997877;28;20245;-71
2022/03/17 10:45:00;;;;;;;5.68;1.45;;;23.50;99.90;;;;;;5015759;28;20029;-66
2022/03/17 10:47:35;;;;;;;3.45;1.42;;;23.50;99.90;;;;;;5011774;28;20037;-71
2022/03/17 10:50:09;;;;;;;6.90;2.10;;;23.50;99.90;;;;;;5015672;28;20026;-68
2022/03/17 10:52:56;;;;;;;6.32;1.73;;;23.60;99.90;;;;;;5016983;28;20033;-67
2022/03/17 10:55:34;;;;;;;4.35;1.70;;;23.60;99.90;;;;;;5016648;28;20412;-65
2022/03/17 10:58:15;;;;;;;4.63;1.67;;;23.60;99.90;;;;;;5019288;28;20041;-70
2022/03/17 11:00:56;;;;;;;4.53;1.60;;;23.60;99.90;;;;;;5016397;28;20836;-69
2022/03/17 11:03:24;;;;;;;8.40;4.32;;;23.60;99.90;;;;;;5017272;28;20021;-65
2022/03/17 11:05:52;;;;;;;8.63;4.47;;;23.60;99.90;;;;;;5021287;28;20053;-70
2022/03/17 11:08:20;;;;;;;8.80;4.70;;;23.50;99.90;;;;;;5017883;28;20574;-70
2022/03/17 11:10:49;;;;;;;4.63;2.40;;;23.50;99.90;;;;;;5016419;28;20029;-66
2022/03/17 11:13:19;;;;;;;8.52;2.47;;;23.50;99.90;;;;;;5020435;28;20025;-66
2022/03/17 11:15:56;;;;;;;4.28;1.83;;;23.40;99.90;;;;;;5018203;28;20025;-68
2022/03/17 11:18:25;;;;;;;4.50;1.95;;;23.40;99.90;;;;;;5014415;28;20037;-68
2022/03/17 11:21:14;;;;;;;7.60;2.88;;;23.30;99.90;;;;;;4996433;28;20033;-64
2022/03/17 11:24:04;;;;;;;6.78;3.85;;;23.20;99.90;;;;;;5013615;28;20153;-67
2022/03/17 11:26:38;;;;;;;9.57;4.50;;;23.20;99.90;;;;;;5016182;28;20060;-68
2022/03/17 11:29:13;;;;;;;5.93;2.10;;;23.20;99.90;;;;;;5017623;28;20407;-66
2022/03/17 11:31:51;;;;;;;6.95;3.75;;;23.10;99.90;;;;;;5014108;28;20125;-69
2022/03/17 11:34:46;;;;;;;9.10;6.20;;;23.10;99.90;;;;;;5014925;28;20022;-68
2022/03/17 11:37:26;;;;;;;7.30;4.20;;;23.00;99.90;;;;;;5014087;28;20056;-65
2022/03/17 11:39:56;;;;;;;7.95;2.78;;;23.00;99.90;;;;;;5013370;28;20026;-66
2022/03/17 11:42:56;;;;;;;4.55;2.00;;;23.00;99.90;;;;;;4995633;28;20033;-63
2022/03/17 11:45:23;;;;;;;5.43;1.98;;;22.90;99.90;;;;;;5016078;28;20395;-67
2022/03/17 11:47:58;;;;;;;4.65;2.08;;;22.90;99.90;;;;;;4998383;28;20150;-64
2022/03/17 11:50:40;;;;;;;4.50;1.90;;;22.90;99.90;;;;;;5009893;28;20097;-64
2022/03/17 11:53:09;;;;;;;4.38;1.80;;;22.80;99.90;;;;;;5016397;28;20057;-63
2022/03/17 11:55:42;;;;;;;8.40;1.92;;;22.80;99.90;;;;;;5016134;28;20033;-67
2022/03/17 11:58:22;;;;;;;5.13;2.03;;;22.70;99.90;;;;;;5015964;28;20037;-66
2022/03/17 12:00:54;;;;;;;7.78;2.20;;;22.70;99.90;;;;;;5018800;28;20484;-68
2022/03/17 12:03:48;;;;;;;4.80;1.85;;;22.70;99.90;;;;;;5016652;28;20056;-66
2022/03/17 12:06:22;;;;;;;8.95;3.50;;;22.60;99.90;;;;;;5014104;28;20053;-68
2022/03/17 12:09:04;;;;;;;5.22;2.38;;;22.60;99.90;;;;;;5014000;28;20061;-64
2022/03/17 12:11:46;;;;;;;10.27;3.17;;;22.60;99.90;;;;;;5011582;28;20021;-64
2022/03/17 12:14:24;;;;;;;4.93;1.52;;;22.60;99.90;;;;;;5017614;28;20399;-67
2022/03/17 12:17:10;;;;;;;6.55;1.70;;;22.50;99.90;;;;;;5015428;28;20022;-64
2022/03/17 12:19:48;;;;;;;4.53;1.92;;;22.50;99.90;;;;;;5024270;28;20021;-68
2022/03/17 12:22:20;;;;;;;7.45;1.77;;;22.40;99.90;;;;;;5009304;28;20491;-65
2022/03/17 12:24:48;;;;;;;4.63;2.13;;;22.50;99.90;;;;;;5011546;28;20030;-64
2022/03/17 12:27:28;;;;;;;5.78;1.70;;;22.40;99.90;;;;;;5024060;28;20025;-65
2022/03/17 12:30:15;;;;;;;5.13;1.75;;;22.40;99.90;;;;;;5018079;28;20017;-66
2022/03/17 12:32:48;;;;;;;5.03;1.83;;;22.40;99.90;;;;;;5011075;28;20022;-67
2022/03/17 12:35:16;;;;;;;3.85;1.52;;;22.40;99.90;;;;;;4996951;28;20041;-67
2022/03/17 12:37:44;;;;;;;7.18;1.83;;;22.40;99.90;;;;;;5019245;28;20045;-67
2022/03/17 12:40:21;;;;;;;3.72;1.50;;;22.40;99.90;;;;;;5017058;28;20116;-64
2022/03/17 12:42:50;;;;;;;5.47;2.08;;;22.30;99.90;;;;;;5019700;28;20612;-67
2022/03/17 12:45:21;;;;;;;7.07;1.95;;;22.30;99.90;;;;;;5015760;28;20044;-67
2022/03/17 12:47:56;;;;;;;5.32;1.92;;;22.30;99.90;;;;;;5021620;28;20034;-67
2022/03/17 12:50:27;;;;;;;4.72;2.00;;;22.30;99.90;;;;;;5017107;28;20030;-64
2022/03/17 12:52:54;;;;;;;6.50;2.20;;;22.20;99.90;;;;;;5020874;28;20033;-66
2022/03/17 12:55:22;;;;;;;10.43;1.63;;;22.20;99.90;;;;;;5013523;28;20095;-67
2022/03/17 12:57:49;;;;;;;3.58;1.77;;;22.10;99.90;;;;;;5024749;28;20029;-68
2022/03/17 13:00:23;;;;;;;4.57;1.73;;;22.10;99.90;;;;;;5021019;28;20112;-65
2022/03/17 13:02:53;;;;;;;5.53;1.83;;;22.10;99.90;;;;;;5016088;28;20018;-67
2022/03/17 13:08:08;;;;;;;9.85;2.28;;;22.00;99.90;;;;;;5024785;28;20117;-67
2022/03/17 13:16:09;;;;;;;5.75;1.80;;;22.00;99.90;;;;;;5024346;28;20404;-69
2022/03/17 13:18:45;;;;;;;4.95;1.58;;;21.90;99.90;;;;;;5019329;28;20018;-67